Time,TemperatureF,DewpointF,PressureIn,WindDirection,WindDirectionDegrees,WindSpeedMPH,WindSpeedGustMPH,Humidity,HourlyPrecipIn,Conditions,Clouds,dailyrainin,SoftwareType,DateUTC
2013-04-05 00:00:00,34.7,33.2,30.06,NNE,17,0.0,0.0,94,0.04,,,0.62,Wunderground v.1.15,2013-04-05 04:00:00,
2013-04-05 00:05:00,34.9,33.6,30.05,ESE,122,0.0,0.0,95,0.09,,,0.01,Wunderground v.1.15,2013-04-05 04:05:00,
2013-04-05 00:10:00,35.1,33.8,30.05,ESE,122,0.0,2.0,95,0.09,,,0.01,Wunderground v.1.15,2013-04-05 04:10:00,
2013-04-05 00:15:00,35.2,33.9,30.05,East,85,1.0,2.0,95,0.09,,,0.02,Wunderground v.1.15,2013-04-05 04:15:00,
2013-04-05 00:25:00,35.2,33.9,30.05,East,85,0.0,1.0,95,0.08,,,0.03,Wunderground v.1.15,2013-04-05 04:25:00,
2013-04-05 00:30:00,35.1,33.8,30.05,East,85,0.0,0.0,95,0.06,,,0.04,Wunderground v.1.15,2013-04-05 04:30:00,
2013-04-05 00:40:00,35.0,33.7,30.04,East,85,0.0,0.0,95,0.06,,,0.05,Wunderground v.1.15,2013-04-05 04:40:00,
2013-04-05 00:45:00,35.0,33.7,30.04,East,85,0.0,0.0,95,0.06,,,0.05,Wunderground v.1.15,2013-04-05 04:45:00,
2013-04-05 00:50:00,35.0,33.7,30.04,East,85,0.0,0.0,95,0.05,,,0.05,Wunderground v.1.15,2013-04-05 04:50:00,
2013-04-05 00:55:00,35.0,33.7,30.04,East,86,0.0,0.0,95,0.00,,,0.06,Wunderground v.1.15,2013-04-05 04:55:00,
2013-04-05 01:00:00,35.1,33.8,30.04,East,86,0.0,0.0,95,0.00,,,0.06,Wunderground v.1.15,2013-04-05 05:00:00,
2013-04-05 01:10:00,35.1,33.8,30.04,East,86,0.0,1.0,95,0.00,,,0.06,Wunderground v.1.15,2013-04-05 05:10:00,
2013-04-05 01:15:00,35.1,33.8,30.04,East,86,0.0,1.0,95,0.00,,,0.06,Wunderground v.1.15,2013-04-05 05:15:00,
2013-04-05 01:25:00,35.2,33.9,30.04,East,86,0.0,0.0,95,0.00,,,0.06,Wunderground v.1.15,2013-04-05 05:25:00,
2013-04-05 01:30:00,35.1,33.8,30.04,NNE,15,0.0,0.0,95,0.00,,,0.07,Wunderground v.1.15,2013-04-05 05:30:00,
2013-04-05 01:35:00,35.1,33.8,30.05,NNE,15,0.0,0.0,95,0.00,,,0.07,Wunderground v.1.15,2013-04-05 05:35:00,
2013-04-05 01:45:00,35.1,33.8,30.04,North,5,1.0,1.0,95,0.00,,,0.07,Wunderground v.1.15,2013-04-05 05:45:00,
2013-04-05 01:50:00,35.1,33.8,30.04,North,5,0.0,0.0,95,0.00,,,0.07,Wunderground v.1.15,2013-04-05 05:50:00,
2013-04-05 01:55:00,35.1,33.8,30.04,North,5,0.0,0.0,95,0.00,,,0.07,Wunderground v.1.15,2013-04-05 05:55:00,
2013-04-05 02:00:00,35.1,33.8,30.04,North,5,0.0,0.0,95,0.00,,,0.07,Wunderground v.1.15,2013-04-05 06:00:00,
2013-04-05 02:10:00,35.0,33.7,30.04,North,5,0.0,0.0,95,0.00,,,0.08,Wunderground v.1.15,2013-04-05 06:10:00,
2013-04-05 02:15:00,35.0,33.7,30.04,North,5,0.0,0.0,95,0.00,,,0.08,Wunderground v.1.15,2013-04-05 06:15:00,
2013-04-05 02:25:00,34.9,33.6,30.03,North,5,0.0,0.0,95,0.00,,,0.08,Wunderground v.1.15,2013-04-05 06:25:00,
2013-04-05 02:30:00,34.9,33.6,30.04,North,5,0.0,0.0,95,0.00,,,0.08,Wunderground v.1.15,2013-04-05 06:30:00,
2013-04-05 02:35:00,34.9,33.6,30.04,North,5,0.0,0.0,95,0.00,,,0.09,Wunderground v.1.15,2013-04-05 06:35:00,
2013-04-05 02:40:00,34.9,33.6,30.04,North,5,0.0,0.0,95,0.00,,,0.09,Wunderground v.1.15,2013-04-05 06:40:00,
2013-04-05 02:45:00,34.9,33.6,30.04,North,5,0.0,0.0,95,0.00,,,0.09,Wunderground v.1.15,2013-04-05 06:45:00,
2013-04-05 02:55:00,34.9,33.6,30.04,North,5,0.0,0.0,95,0.00,,,0.09,Wunderground v.1.15,2013-04-05 06:55:00,
2013-04-05 03:00:00,34.9,33.6,30.04,North,5,0.0,0.0,95,0.00,,,0.09,Wunderground v.1.15,2013-04-05 07:00:00,
2013-04-05 03:10:00,34.9,33.6,30.03,North,5,0.0,0.0,95,0.00,,,0.09,Wunderground v.1.15,2013-04-05 07:10:00,
2013-04-05 03:15:00,34.9,33.6,30.03,North,5,0.0,0.0,95,0.00,,,0.10,Wunderground v.1.15,2013-04-05 07:15:00,
2013-04-05 03:25:00,34.8,33.5,30.03,North,5,0.0,0.0,95,0.00,,,0.10,Wunderground v.1.15,2013-04-05 07:25:00,
2013-04-05 03:30:00,34.8,33.5,30.04,North,5,0.0,0.0,95,0.00,,,0.10,Wunderground v.1.15,2013-04-05 07:30:00,
2013-04-05 03:40:00,34.8,33.5,30.04,North,5,0.0,0.0,95,0.00,,,0.10,Wunderground v.1.15,2013-04-05 07:40:00,
2013-04-05 03:45:00,34.8,33.5,30.04,North,5,0.0,0.0,95,0.00,,,0.10,Wunderground v.1.15,2013-04-05 07:45:00,
2013-04-05 03:55:00,34.9,33.6,30.04,North,5,0.0,0.0,95,0.00,,,0.10,Wunderground v.1.15,2013-04-05 07:55:00,
2013-04-05 04:00:00,34.9,33.6,30.04,North,5,0.0,0.0,95,0.00,,,0.11,Wunderground v.1.15,2013-04-05 08:00:00,
2013-04-05 04:10:00,34.9,33.6,30.04,North,5,0.0,0.0,95,0.00,,,0.11,Wunderground v.1.15,2013-04-05 08:10:00,
2013-04-05 04:15:00,35.0,33.7,30.04,North,5,0.0,0.0,95,0.00,,,0.11,Wunderground v.1.15,2013-04-05 08:15:00,
2013-04-05 04:20:00,35.0,33.7,30.05,North,5,0.0,0.0,95,0.00,,,0.11,Wunderground v.1.15,2013-04-05 08:20:00,
2013-04-05 04:30:00,35.0,33.7,30.05,North,5,0.0,0.0,95,0.00,,,0.11,Wunderground v.1.15,2013-04-05 08:30:00,
2013-04-05 04:40:00,34.9,33.6,30.05,North,5,0.0,0.0,95,0.00,,,0.11,Wunderground v.1.15,2013-04-05 08:40:00,
2013-04-05 04:45:00,34.9,33.6,30.05,North,5,0.0,0.0,95,0.00,,,0.11,Wunderground v.1.15,2013-04-05 08:45:00,
2013-04-05 04:55:00,35.0,33.7,30.05,North,5,0.0,0.0,95,0.00,,,0.11,Wunderground v.1.15,2013-04-05 08:55:00,
2013-04-05 05:00:00,35.0,33.7,30.05,North,5,0.0,0.0,95,0.00,,,0.12,Wunderground v.1.15,2013-04-05 09:00:00,
2013-04-05 05:10:00,35.0,33.7,30.06,North,5,0.0,0.0,95,0.00,,,0.12,Wunderground v.1.15,2013-04-05 09:10:00,
2013-04-05 05:20:00,35.0,33.7,30.06,North,5,0.0,0.0,95,0.00,,,0.12,Wunderground v.1.15,2013-04-05 09:20:00,
2013-04-05 05:25:00,35.0,33.7,30.06,North,5,0.0,0.0,95,0.00,,,0.12,Wunderground v.1.15,2013-04-05 09:25:00,
2013-04-05 05:35:00,35.1,33.8,30.06,North,5,0.0,0.0,95,0.00,,,0.12,Wunderground v.1.15,2013-04-05 09:35:00,
2013-04-05 05:40:00,35.1,33.8,30.06,North,5,0.0,0.0,95,0.00,,,0.12,Wunderground v.1.15,2013-04-05 09:40:00,
2013-04-05 05:45:00,35.1,33.8,30.06,North,5,0.0,0.0,95,0.00,,,0.12,Wunderground v.1.15,2013-04-05 09:45:00,
2013-04-05 05:55:00,35.1,33.8,30.07,North,5,0.0,0.0,95,0.00,,,0.12,Wunderground v.1.15,2013-04-05 09:55:00,
2013-04-05 06:00:00,35.1,33.8,30.07,North,5,0.0,0.0,95,0.00,,,0.13,Wunderground v.1.15,2013-04-05 10:00:00,
2013-04-05 06:10:00,35.1,33.8,30.07,North,5,0.0,0.0,95,0.00,,,0.13,Wunderground v.1.15,2013-04-05 10:10:00,
2013-04-05 06:15:00,35.1,33.8,30.07,North,5,0.0,0.0,95,0.00,,,0.13,Wunderground v.1.15,2013-04-05 10:15:00,
2013-04-05 06:20:00,35.1,33.8,30.07,North,5,0.0,0.0,95,0.00,,,0.13,Wunderground v.1.15,2013-04-05 10:20:00,
2013-04-05 06:25:00,35.2,33.9,30.07,North,5,0.0,0.0,95,0.00,,,0.13,Wunderground v.1.15,2013-04-05 10:25:00,
2013-04-05 06:35:00,35.2,33.9,30.07,North,5,0.0,0.0,95,0.00,,,0.13,Wunderground v.1.15,2013-04-05 10:35:00,
2013-04-05 06:40:00,35.2,33.9,30.07,North,5,0.0,0.0,95,0.00,,,0.13,Wunderground v.1.15,2013-04-05 10:40:00,
2013-04-05 06:45:00,35.2,33.9,30.07,North,5,0.0,0.0,95,0.00,,,0.13,Wunderground v.1.15,2013-04-05 10:45:00,
2013-04-05 06:55:00,35.2,33.9,30.06,North,5,0.0,1.0,95,0.00,,,0.13,Wunderground v.1.15,2013-04-05 10:55:00,
2013-04-05 07:00:00,35.1,33.8,30.06,North,5,0.0,0.0,95,0.00,,,0.13,Wunderground v.1.15,2013-04-05 11:00:00,
2013-04-05 07:10:00,35.1,33.8,30.06,North,5,0.0,0.0,95,0.00,,,0.14,Wunderground v.1.15,2013-04-05 11:10:00,
2013-04-05 07:15:00,35.2,33.9,30.06,North,5,0.0,0.0,95,0.00,,,0.14,Wunderground v.1.15,2013-04-05 11:15:00,
2013-04-05 07:20:00,35.2,33.9,30.06,North,5,0.0,0.0,95,0.00,,,0.14,Wunderground v.1.15,2013-04-05 11:20:00,
2013-04-05 07:25:00,35.2,33.9,30.06,North,5,0.0,0.0,95,0.00,,,0.14,Wunderground v.1.15,2013-04-05 11:25:00,
2013-04-05 07:30:00,35.2,33.9,30.06,North,5,0.0,0.0,95,0.00,,,0.14,Wunderground v.1.15,2013-04-05 11:30:00,
2013-04-05 07:40:00,35.3,34.0,30.07,North,5,0.0,0.0,95,0.00,,,0.14,Wunderground v.1.15,2013-04-05 11:40:00,
2013-04-05 07:45:00,35.4,34.1,30.07,North,5,0.0,0.0,95,0.00,,,0.14,Wunderground v.1.15,2013-04-05 11:45:00,
2013-04-05 07:55:00,35.5,34.2,30.08,North,5,0.0,0.0,95,0.00,,,0.14,Wunderground v.1.15,2013-04-05 11:55:00,
2013-04-05 08:00:00,35.6,34.3,30.08,North,5,0.0,0.0,95,0.00,,,0.15,Wunderground v.1.15,2013-04-05 12:00:00,
2013-04-05 08:10:00,35.7,34.4,30.08,North,5,0.0,0.0,95,0.00,,,0.15,Wunderground v.1.15,2013-04-05 12:10:00,
2013-04-05 08:15:00,35.8,34.5,30.09,North,5,0.0,0.0,95,0.00,,,0.15,Wunderground v.1.15,2013-04-05 12:15:00,
2013-04-05 08:25:00,35.9,34.6,30.09,North,5,0.0,0.0,95,0.00,,,0.15,Wunderground v.1.15,2013-04-05 12:25:00,
2013-04-05 08:30:00,36.0,34.7,30.09,North,5,0.0,0.0,95,0.00,,,0.15,Wunderground v.1.15,2013-04-05 12:30:00,
2013-04-05 08:35:00,36.1,34.8,30.09,North,5,0.0,0.0,95,0.00,,,0.15,Wunderground v.1.15,2013-04-05 12:35:00,
2013-04-05 08:45:00,36.4,35.1,30.10,North,5,0.0,0.0,95,0.00,,,0.16,Wunderground v.1.15,2013-04-05 12:45:00,
2013-04-05 08:50:00,36.5,35.2,30.10,East,79,0.0,0.0,95,0.00,,,0.16,Wunderground v.1.15,2013-04-05 12:50:00,
2013-04-05 08:55:00,36.6,35.3,30.11,East,79,1.0,1.0,95,0.00,,,0.16,Wunderground v.1.15,2013-04-05 12:55:00,
2013-04-05 09:00:00,36.7,35.4,30.11,East,79,0.0,0.0,95,0.00,,,0.16,Wunderground v.1.15,2013-04-05 13:00:00,
2013-04-05 09:10:00,37.0,35.7,30.11,East,79,0.0,0.0,95,0.00,,,0.17,Wunderground v.1.15,2013-04-05 13:10:00,
2013-04-05 09:15:00,37.1,36.1,30.11,East,79,0.0,0.0,96,0.00,,,0.17,Wunderground v.1.15,2013-04-05 13:15:00,
2013-04-05 09:25:00,37.3,36.0,30.12,East,79,0.0,0.0,95,0.00,,,0.17,Wunderground v.1.15,2013-04-05 13:25:00,
2013-04-05 09:30:00,37.5,36.2,30.12,East,79,0.0,0.0,95,0.00,,,0.18,Wunderground v.1.15,2013-04-05 13:30:00,
2013-04-05 09:40:00,37.8,36.8,30.12,East,79,0.0,0.0,96,0.00,,,0.18,Wunderground v.1.15,2013-04-05 13:40:00,
2013-04-05 09:45:00,37.8,36.5,30.11,East,79,0.0,0.0,95,0.00,,,0.18,Wunderground v.1.15,2013-04-05 13:45:00,
2013-04-05 09:55:00,38.0,36.7,30.11,East,79,0.0,1.0,95,0.00,,,0.19,Wunderground v.1.15,2013-04-05 13:55:00,
2013-04-05 10:00:00,38.2,37.2,30.12,East,79,0.0,0.0,96,0.00,,,0.19,Wunderground v.1.15,2013-04-05 14:00:00,
2013-04-05 10:10:00,38.6,37.6,30.12,East,79,0.0,0.0,96,0.00,,,0.19,Wunderground v.1.15,2013-04-05 14:10:00,
2013-04-05 10:15:00,38.9,37.9,30.12,East,79,0.0,0.0,96,0.00,,,0.20,Wunderground v.1.15,2013-04-05 14:15:00,
2013-04-05 10:20:00,39.2,38.2,30.11,East,79,0.0,0.0,96,0.00,,,0.20,Wunderground v.1.15,2013-04-05 14:20:00,
2013-04-05 10:25:00,39.5,38.5,30.11,East,79,0.0,0.0,96,0.00,,,0.20,Wunderground v.1.15,2013-04-05 14:25:00,
2013-04-05 10:30:00,39.5,38.5,30.12,East,79,1.0,1.0,96,0.04,,,0.21,Wunderground v.1.15,2013-04-05 14:30:00,
2013-04-05 10:40:00,39.9,38.9,30.12,ESE,112,1.0,1.0,96,0.04,,,0.21,Wunderground v.1.15,2013-04-05 14:40:00,
2013-04-05 10:45:00,40.1,39.1,30.11,ESE,112,1.0,1.0,96,0.00,,,0.21,Wunderground v.1.15,2013-04-05 14:45:00,
2013-04-05 10:55:00,41.0,39.9,30.12,ESE,111,0.0,1.0,96,0.00,,,0.22,Wunderground v.1.15,2013-04-05 14:55:00,
2013-04-05 11:00:00,41.4,40.3,30.12,WNW,288,1.0,10.0,96,0.00,,,0.22,Wunderground v.1.15,2013-04-05 15:00:00,
2013-04-05 11:10:00,41.6,40.3,30.12,WNW,303,4.0,4.0,95,0.04,,,0.23,Wunderground v.1.15,2013-04-05 15:10:00,
2013-04-05 11:15:00,42.3,41.0,30.12,NW,316,2.0,4.0,95,0.05,,,0.24,Wunderground v.1.15,2013-04-05 15:15:00,
2013-04-05 11:20:00,42.4,40.8,30.13,WNW,298,1.0,1.0,94,0.05,,,0.24,Wunderground v.1.15,2013-04-05 15:20:00,
2013-04-05 11:30:00,43.6,41.4,30.13,NW,323,2.0,2.0,92,0.05,,,0.25,Wunderground v.1.15,2013-04-05 15:30:00,
2013-04-05 11:35:00,44.1,41.1,30.13,WNW,286,2.0,2.0,89,0.05,,,0.25,Wunderground v.1.15,2013-04-05 15:35:00,
2013-04-05 11:40:00,44.4,40.5,30.13,West,275,2.0,2.0,86,0.05,,,0.26,Wunderground v.1.15,2013-04-05 15:40:00,
2013-04-05 11:45:00,44.8,40.0,30.13,WNW,300,2.0,2.0,83,0.05,,,0.26,Wunderground v.1.15,2013-04-05 15:45:00,
2013-04-05 11:55:00,45.6,40.1,30.12,SSE,155,1.0,1.0,81,0.06,,,0.27,Wunderground v.1.15,2013-04-05 15:55:00,
2013-04-05 12:00:00,45.4,39.6,30.12,SE,140,2.0,2.0,80,0.06,,,0.28,Wunderground v.1.15,2013-04-05 16:00:00,
2013-04-05 12:10:00,45.9,40.1,30.12,East,85,1.0,1.0,80,0.05,,,0.28,Wunderground v.1.15,2013-04-05 16:10:00,
2013-04-05 12:15:00,46.2,39.4,30.12,ENE,65,1.0,1.0,77,0.05,,,0.29,Wunderground v.1.15,2013-04-05 16:15:00,
2013-04-05 12:20:00,46.4,39.6,30.12,ENE,70,1.0,1.0,77,0.05,,,0.29,Wunderground v.1.15,2013-04-05 16:20:00,
2013-04-05 12:25:00,46.9,40.1,30.12,ENE,70,1.0,1.0,77,0.04,,,0.29,Wunderground v.1.15,2013-04-05 16:25:00,
2013-04-05 12:35:00,48.2,39.9,30.11,South,182,1.0,1.0,73,0.00,,,0.29,Wunderground v.1.15,2013-04-05 16:35:00,
2013-04-05 12:45:00,48.1,38.0,30.11,WNW,290,3.0,7.0,68,0.00,,,0.29,Wunderground v.1.15,2013-04-05 16:45:00,
2013-04-05 12:55:00,49.0,36.1,30.10,West,279,4.0,5.0,61,0.00,,,0.29,Wunderground v.1.15,2013-04-05 16:55:00,
2013-04-05 13:00:00,49.2,36.7,30.10,WNW,301,5.0,6.0,62,0.00,,,0.29,Wunderground v.1.15,2013-04-05 17:00:00,
2013-04-05 13:10:00,49.5,39.0,30.10,WNW,303,2.0,2.0,67,0.00,,,0.29,Wunderground v.1.15,2013-04-05 17:10:00,
2013-04-05 13:15:00,50.0,38.3,30.10,NNW,327,2.0,2.0,64,0.00,,,0.29,Wunderground v.1.15,2013-04-05 17:15:00,
2013-04-05 13:25:00,50.1,37.6,30.09,NW,309,4.0,7.0,62,0.00,,,0.29,Wunderground v.1.15,2013-04-05 17:25:00,
2013-04-05 13:30:00,50.5,37.5,30.09,WNW,290,6.0,6.0,61,0.00,,,0.29,Wunderground v.1.15,2013-04-05 17:30:00,
2013-04-05 13:40:00,50.9,40.3,30.08,WNW,283,5.0,8.0,67,0.00,,,0.29,Wunderground v.1.15,2013-04-05 17:40:00,
2013-04-05 13:45:00,50.8,38.2,30.08,NW,320,5.0,8.0,62,0.00,,,0.29,Wunderground v.1.15,2013-04-05 17:45:00,
2013-04-05 13:55:00,52.0,39.8,30.08,WNW,303,2.0,6.0,63,0.00,,,0.29,Wunderground v.1.15,2013-04-05 17:55:00,
2013-04-05 14:00:00,52.2,37.4,30.08,West,260,4.0,6.0,57,0.00,,,0.29,Wunderground v.1.15,2013-04-05 18:00:00,
2013-04-05 14:10:00,52.4,38.9,30.07,WNW,282,5.0,8.0,60,0.00,,,0.29,Wunderground v.1.15,2013-04-05 18:10:00,
2013-04-05 14:15:00,52.3,37.1,30.07,WNW,292,6.0,8.0,56,0.00,,,0.29,Wunderground v.1.15,2013-04-05 18:15:00,
2013-04-05 14:20:00,53.0,37.7,30.07,NW,306,6.0,6.0,56,0.00,,,0.29,Wunderground v.1.15,2013-04-05 18:20:00,
2013-04-05 14:25:00,53.0,39.0,30.07,WNW,295,5.0,8.0,59,0.00,,,0.29,Wunderground v.1.15,2013-04-05 18:25:00,
2013-04-05 14:35:00,53.4,37.2,30.06,NW,309,5.0,6.0,54,0.00,,,0.29,Wunderground v.1.15,2013-04-05 18:35:00,
2013-04-05 14:40:00,53.7,37.9,30.06,NW,324,4.0,4.0,55,0.00,,,0.29,Wunderground v.1.15,2013-04-05 18:40:00,
2013-04-05 14:45:00,54.2,37.4,30.06,WNW,286,4.0,5.0,53,0.00,,,0.29,Wunderground v.1.15,2013-04-05 18:45:00,
2013-04-05 14:55:00,53.7,36.5,30.06,West,262,6.0,6.0,52,0.00,,,0.29,Wunderground v.1.15,2013-04-05 18:55:00,
2013-04-05 15:00:00,54.2,35.9,30.06,West,271,7.0,7.0,50,0.00,,,0.29,Wunderground v.1.15,2013-04-05 19:00:00,
2013-04-05 15:10:00,54.9,38.1,30.06,West,281,5.0,6.0,53,0.00,,,0.29,Wunderground v.1.15,2013-04-05 19:10:00,
2013-04-05 15:15:00,55.0,36.2,30.05,West,275,6.0,10.0,49,0.00,,,0.29,Wunderground v.1.15,2013-04-05 19:15:00,
2013-04-05 15:25:00,55.6,35.1,30.05,WNW,285,5.0,7.0,46,0.00,,,0.29,Wunderground v.1.15,2013-04-05 19:25:00,
2013-04-05 15:30:00,56.2,37.3,30.06,WNW,286,4.0,7.0,49,0.00,,,0.29,Wunderground v.1.15,2013-04-05 19:30:00,
2013-04-05 15:40:00,56.1,33.9,30.05,WNW,302,7.0,11.0,43,0.00,,,0.29,Wunderground v.1.15,2013-04-05 19:40:00,
2013-04-05 15:50:00,56.2,34.0,30.05,WNW,294,7.0,7.0,43,0.00,,,0.29,Wunderground v.1.15,2013-04-05 19:50:00,
2013-04-05 15:55:00,56.5,34.3,30.04,WNW,296,6.0,7.0,43,0.00,,,0.29,Wunderground v.1.15,2013-04-05 19:55:00,
2013-04-05 16:05:00,56.9,34.0,30.04,NW,311,6.0,7.0,42,0.00,,,0.29,Wunderground v.1.15,2013-04-05 20:05:00,
2013-04-05 16:10:00,57.6,35.8,30.04,West,269,5.0,9.0,44,0.00,,,0.29,Wunderground v.1.15,2013-04-05 20:10:00,
2013-04-05 16:15:00,57.7,32.9,30.04,NNW,332,5.0,9.0,39,0.00,,,0.29,Wunderground v.1.15,2013-04-05 20:15:00,
2013-04-05 16:20:00,57.4,33.3,30.04,NW,316,6.0,8.0,40,0.00,,,0.29,Wunderground v.1.15,2013-04-05 20:20:00,
2013-04-05 16:25:00,57.2,33.1,30.05,West,269,8.0,8.0,40,0.00,,,0.29,Wunderground v.1.15,2013-04-05 20:25:00,
2013-04-05 16:30:00,57.3,33.8,30.04,WNW,296,7.0,7.0,41,0.00,,,0.29,Wunderground v.1.15,2013-04-05 20:30:00,
2013-04-05 16:40:00,57.8,33.6,30.04,NW,320,5.0,5.0,40,0.00,,,0.29,Wunderground v.1.15,2013-04-05 20:40:00,
2013-04-05 16:45:00,58.1,33.2,30.04,NNW,330,4.0,5.0,39,0.00,,,0.29,Wunderground v.1.15,2013-04-05 20:45:00,
2013-04-05 16:55:00,58.0,32.5,30.04,NW,315,6.0,10.0,38,0.00,,,0.29,Wunderground v.1.15,2013-04-05 20:55:00,
2013-04-05 17:00:00,58.2,33.3,30.04,WSW,253,6.0,6.0,39,0.00,,,0.29,Wunderground v.1.15,2013-04-05 21:00:00,
2013-04-05 17:10:00,57.7,32.2,30.04,WSW,241,8.0,13.0,38,0.00,,,0.29,Wunderground v.1.15,2013-04-05 21:10:00,
2013-04-05 17:15:00,57.5,32.1,30.05,SW,236,8.0,13.0,38,0.00,,,0.29,Wunderground v.1.15,2013-04-05 21:15:00,
2013-04-05 17:25:00,58.1,33.2,30.05,West,279,6.0,9.0,39,0.00,,,0.29,Wunderground v.1.15,2013-04-05 21:25:00,
2013-04-05 17:30:00,57.7,32.2,30.05,WSW,256,7.0,7.0,38,0.00,,,0.29,Wunderground v.1.15,2013-04-05 21:30:00,
2013-04-05 17:40:00,57.7,34.1,30.06,West,264,7.0,7.0,41,0.00,,,0.29,Wunderground v.1.15,2013-04-05 21:40:00,
2013-04-05 17:50:00,57.8,34.2,30.05,WNW,284,5.0,5.0,41,0.00,,,0.29,Wunderground v.1.15,2013-04-05 21:50:00,
2013-04-05 17:55:00,57.9,32.4,30.06,West,279,6.0,6.0,38,0.00,,,0.29,Wunderground v.1.15,2013-04-05 21:55:00,
2013-04-05 18:00:00,58.0,32.5,30.06,West,263,4.0,4.0,38,0.00,,,0.29,Wunderground v.1.15,2013-04-05 22:00:00,
2013-04-05 18:10:00,58.3,33.4,30.06,WNW,286,4.0,4.0,39,0.00,,,0.29,Wunderground v.1.15,2013-04-05 22:10:00,
2013-04-05 18:15:00,58.3,32.8,30.06,NNW,335,4.0,4.0,38,0.00,,,0.29,Wunderground v.1.15,2013-04-05 22:15:00,
2013-04-05 18:25:00,58.1,33.2,30.06,West,259,5.0,8.0,39,0.00,,,0.29,Wunderground v.1.15,2013-04-05 22:25:00,
2013-04-05 18:30:00,57.9,33.1,30.06,WNW,294,4.0,5.0,39,0.00,,,0.29,Wunderground v.1.15,2013-04-05 22:30:00,
2013-04-05 18:40:00,57.7,32.2,30.06,West,280,5.0,5.0,38,0.00,,,0.29,Wunderground v.1.15,2013-04-05 22:40:00,
2013-04-05 18:45:00,57.7,32.9,30.06,West,276,4.0,5.0,39,0.00,,,0.29,Wunderground v.1.15,2013-04-05 22:45:00,
2013-04-05 18:55:00,56.8,32.7,30.07,NW,304,3.0,8.0,40,0.00,,,0.29,Wunderground v.1.15,2013-04-05 22:55:00,
2013-04-05 19:00:00,56.6,32.5,30.07,WNW,287,3.0,3.0,40,0.00,,,0.29,Wunderground v.1.15,2013-04-05 23:00:00,
2013-04-05 19:10:00,56.0,32.6,30.07,WNW,284,2.0,5.0,41,0.00,,,0.29,Wunderground v.1.15,2013-04-05 23:10:00,
2013-04-05 19:15:00,55.3,34.3,30.07,West,268,3.0,5.0,45,0.00,,,0.29,Wunderground v.1.15,2013-04-05 23:15:00,
2013-04-05 19:25:00,55.2,31.3,30.07,WNW,290,5.0,5.0,40,0.00,,,0.29,Wunderground v.1.15,2013-04-05 23:25:00,
2013-04-05 19:30:00,54.8,33.3,30.08,West,277,3.0,3.0,44,0.00,,,0.29,Wunderground v.1.15,2013-04-05 23:30:00,
2013-04-05 19:40:00,52.2,36.0,30.08,West,275,1.0,1.0,54,0.00,,,0.29,Wunderground v.1.15,2013-04-05 23:40:00,
2013-04-05 19:45:00,50.9,37.5,30.08,West,275,1.0,1.0,60,0.00,,,0.29,Wunderground v.1.15,2013-04-05 23:45:00,
2013-04-05 19:55:00,48.5,36.5,30.08,WNW,289,1.0,1.0,63,0.00,,,0.29,Wunderground v.1.15,2013-04-05 23:55:00,
2013-04-05 20:00:00,48.0,36.8,30.08,WNW,289,1.0,1.0,65,0.00,,,0.29,Wunderground v.1.15,2013-04-06 00:00:00,
2013-04-05 20:10:00,46.1,36.5,30.09,WNW,289,1.0,1.0,69,0.00,,,0.29,Wunderground v.1.15,2013-04-06 00:10:00,
2013-04-05 20:15:00,45.8,36.6,30.09,WNW,289,1.0,1.0,70,0.00,,,0.29,Wunderground v.1.15,2013-04-06 00:15:00,
2013-04-05 20:20:00,45.0,36.5,30.09,WNW,289,0.0,0.0,72,0.00,,,0.29,Wunderground v.1.15,2013-04-06 00:20:00,
2013-04-05 20:25:00,44.6,36.5,30.09,WNW,289,0.0,0.0,73,0.00,,,0.29,Wunderground v.1.15,2013-04-06 00:25:00,
2013-04-05 20:30:00,44.2,36.4,30.09,WNW,289,0.0,0.0,74,0.00,,,0.29,Wunderground v.1.15,2013-04-06 00:30:00,
2013-04-05 20:40:00,43.3,36.2,30.10,WNW,289,0.0,0.0,76,0.00,,,0.29,Wunderground v.1.15,2013-04-06 00:40:00,
2013-04-05 20:45:00,42.9,35.9,30.10,WNW,289,0.0,0.0,76,0.00,,,0.29,Wunderground v.1.15,2013-04-06 00:45:00,
2013-04-05 20:55:00,42.1,35.7,30.10,WNW,289,0.0,0.0,78,0.00,,,0.29,Wunderground v.1.15,2013-04-06 00:55:00,
2013-04-05 21:05:00,41.5,35.8,30.11,WNW,289,0.0,1.0,80,0.00,,,0.29,Wunderground v.1.15,2013-04-06 01:05:00,
2013-04-05 21:10:00,41.0,35.6,30.11,WNW,289,0.0,0.0,81,0.00,,,0.29,Wunderground v.1.15,2013-04-06 01:10:00,
2013-04-05 21:20:00,40.3,35.2,30.12,WNW,289,0.0,0.0,82,0.00,,,0.29,Wunderground v.1.15,2013-04-06 01:20:00,
2013-04-05 21:25:00,40.0,34.9,30.12,WNW,289,1.0,1.0,82,0.00,,,0.29,Wunderground v.1.15,2013-04-06 01:25:00,
2013-04-05 21:30:00,39.5,34.8,30.12,WNW,289,0.0,0.0,83,0.00,,,0.29,Wunderground v.1.15,2013-04-06 01:30:00,
2013-04-05 21:40:00,39.2,34.8,30.13,WNW,289,0.0,0.0,84,0.00,,,0.29,Wunderground v.1.15,2013-04-06 01:40:00,
2013-04-05 21:45:00,38.9,34.8,30.13,WNW,289,0.0,0.0,85,0.00,,,0.29,Wunderground v.1.15,2013-04-06 01:45:00,
2013-04-05 21:55:00,38.4,34.3,30.13,WNW,289,0.0,0.0,85,0.00,,,0.29,Wunderground v.1.15,2013-04-06 01:55:00,
2013-04-05 22:00:00,38.2,34.4,30.14,WNW,289,0.0,0.0,86,0.00,,,0.29,Wunderground v.1.15,2013-04-06 02:00:00,
2013-04-05 22:10:00,37.8,34.0,30.13,WNW,289,0.0,0.0,86,0.00,,,0.29,Wunderground v.1.15,2013-04-06 02:10:00,
2013-04-05 22:15:00,37.6,33.8,30.14,WNW,289,0.0,0.0,86,0.00,,,0.29,Wunderground v.1.15,2013-04-06 02:15:00,
2013-04-05 22:20:00,37.5,34.0,30.14,WNW,289,0.0,0.0,87,0.00,,,0.29,Wunderground v.1.15,2013-04-06 02:20:00,
2013-04-05 22:25:00,37.1,33.6,30.14,WNW,289,0.0,0.0,87,0.00,,,0.29,Wunderground v.1.15,2013-04-06 02:25:00,
2013-04-05 22:30:00,37.0,33.5,30.14,WNW,289,0.0,0.0,87,0.00,,,0.29,Wunderground v.1.15,2013-04-06 02:30:00,
2013-04-05 22:40:00,36.7,33.5,30.14,WNW,289,0.0,0.0,88,0.00,,,0.29,Wunderground v.1.15,2013-04-06 02:40:00,
2013-04-05 22:45:00,36.5,33.3,30.14,WNW,289,1.0,1.0,88,0.00,,,0.29,Wunderground v.1.15,2013-04-06 02:45:00,
2013-04-05 22:50:00,36.4,33.2,30.14,WNW,289,0.0,0.0,88,0.00,,,0.29,Wunderground v.1.15,2013-04-06 02:50:00,
2013-04-05 22:55:00,36.2,33.0,30.14,WNW,289,0.0,0.0,88,0.00,,,0.29,Wunderground v.1.15,2013-04-06 02:55:00,
2013-04-05 23:05:00,36.0,32.8,30.14,WNW,289,0.0,0.0,88,0.00,,,0.29,Wunderground v.1.15,2013-04-06 03:05:00,
2013-04-05 23:10:00,35.7,32.5,30.14,WNW,289,0.0,0.0,88,0.00,,,0.29,Wunderground v.1.15,2013-04-06 03:10:00,
2013-04-05 23:20:00,35.6,32.7,30.14,WNW,289,0.0,0.0,89,0.00,,,0.29,Wunderground v.1.15,2013-04-06 03:20:00,
2013-04-05 23:25:00,35.4,32.5,30.14,WNW,289,0.0,2.0,89,0.00,,,0.29,Wunderground v.1.15,2013-04-06 03:25:00,
2013-04-05 23:30:00,35.3,32.4,30.14,WNW,289,1.0,1.0,89,0.00,,,0.29,Wunderground v.1.15,2013-04-06 03:30:00,
2013-04-05 23:40:00,35.0,32.1,30.15,WNW,289,0.0,1.0,89,0.00,,,0.29,Wunderground v.1.15,2013-04-06 03:40:00,
2013-04-05 23:45:00,34.7,31.8,30.15,WNW,289,0.0,1.0,89,0.00,,,0.29,Wunderground v.1.15,2013-04-06 03:45:00,
2013-04-05 23:55:00,34.6,32.0,30.15,WNW,289,0.0,0.0,90,0.00,,,0.29,Wunderground v.1.15,2013-04-06 03:55:00,